Time;durP1;ratioP1;P1;durP2;ratioP2;P2;SDS_P1;SDS_P2;PMS_P1;PMS_P2;Temp;Humidity;BMP_temperature;BMP_pressure;BME280_temperature;BME280_humidity;BME280_pressure;Samples;Min_cycle;Max_cycle;Signal;HPM_P1;HPM_P2
2022/03/31 00:00:48;;;;;;;10.55;3.65;;;;;;;17.46;37.77;97349.25;4950895;29;20183;-65
2022/03/31 00:03:15;;;;;;;13.15;4.00;;;;;;;17.49;37.80;97348.94;4950683;28;20247;-65
2022/03/31 00:05:41;;;;;;;11.27;3.88;;;;;;;17.51;38.26;97336.47;4950964;29;20191;-65
2022/03/31 00:08:09;;;;;;;15.60;4.45;;;;;;;17.50;39.16;97347.94;4950878;29;20201;-65
2022/03/31 00:10:37;;;;;;;19.45;4.43;;;;;;;17.45;38.26;97332.78;4933710;29;20200;-65
2022/03/31 00:13:05;;;;;;;15.70;4.20;;;;;;;17.37;38.89;97316.28;4948243;29;20663;-65
2022/03/31 00:15:32;;;;;;;14.55;3.88;;;;;;;17.39;38.17;97316.94;4939257;29;20184;-65
2022/03/31 00:17:59;;;;;;;16.52;4.40;;;;;;;17.35;38.23;97315.63;4941640;29;20206;-65
2022/03/31 00:20:26;;;;;;;12.63;3.58;;;;;;;17.35;38.58;97315.63;4948996;29;20279;-65
2022/03/31 00:22:51;;;;;;;17.08;4.60;;;;;;;17.38;38.33;97316.13;4950600;29;20759;-65
2022/03/31 00:25:17;;;;;;;14.13;4.10;;;;;;;17.30;39.28;97308.31;4950598;29;20255;-65
2022/03/31 00:27:42;;;;;;;14.05;3.85;;;;;;;17.24;39.46;97309.00;4950576;29;20252;-66
2022/03/31 00:30:10;;;;;;;16.05;4.32;;;;;;;17.16;39.24;97306.44;4950770;29;20292;-65
2022/03/31 00:32:36;;;;;;;14.55;3.53;;;;;;;17.22;39.03;97318.00;4950671;29;20185;-65
2022/03/31 00:35:03;;;;;;;15.77;4.63;;;;;;;17.19;39.55;97320.97;4943139;29;20200;-65
2022/03/31 00:37:29;;;;;;;8.93;4.18;;;;;;;17.18;39.40;97324.56;4940077;29;20966;-65
2022/03/31 00:39:55;;;;;;;14.55;4.85;;;;;;;17.15;40.24;97309.22;4942958;29;20184;-65
2022/03/31 00:42:22;;;;;;;15.35;4.38;;;;;;;17.12;39.84;97320.84;4950606;29;20216;-66
2022/03/31 00:44:48;;;;;;;15.25;4.40;;;;;;;17.08;40.75;97321.38;4950154;28;20194;-66
2022/03/31 00:47:13;;;;;;;9.50;3.60;;;;;;;16.98;39.79;97318.16;4949120;29;20208;-65
2022/03/31 00:49:39;;;;;;;18.60;4.75;;;;;;;16.99;40.87;97315.38;4950422;29;20236;-64
2022/03/31 00:52:05;;;;;;;13.13;4.30;;;;;;;16.95;40.92;97318.47;4950230;29;20192;-64
2022/03/31 00:54:32;;;;;;;11.65;4.47;;;;;;;17.00;41.16;97310.94;4949799;29;20764;-64
2022/03/31 00:57:00;;;;;;;13.60;4.80;;;;;;;17.01;41.42;97318.63;4938770;29;20189;-66
2022/03/31 00:59:26;;;;;;;13.32;6.45;;;;;;;16.95;45.32;97326.31;4923172;29;20741;-65
2022/03/31 01:01:53;;;;;;;19.15;7.40;;;;;;;16.74;45.88;97326.88;4946465;29;20192;-64
2022/03/31 01:04:18;;;;;;;17.80;7.15;;;;;;;16.65;46.89;97327.91;4949707;28;20580;-64
2022/03/31 01:06:44;;;;;;;18.80;7.82;;;;;;;16.44;47.54;97317.19;4949792;29;20232;-64
2022/03/31 01:09:12;;;;;;;21.80;7.50;;;;;;;16.40;48.92;97320.31;4949717;29;20192;-66
2022/03/31 01:11:38;;;;;;;15.57;7.68;;;;;;;16.33;49.85;97322.75;4949528;29;20704;-66
2022/03/31 01:14:04;;;;;;;15.85;7.00;;;;;;;16.06;50.97;97315.31;4949654;29;20180;-65
2022/03/31 01:16:33;;;;;;;13.30;7.43;;;;;;;15.80;52.38;97313.88;4945325;29;20389;-64
2022/03/31 01:19:03;;;;;;;20.10;7.85;;;;;;;15.48;53.81;97314.69;4938713;29;20181;-64
2022/03/31 01:21:28;;;;;;;16.40;7.40;;;;;;;15.33;54.28;97325.91;4941139;29;20185;-64
2022/03/31 01:23:54;;;;;;;14.45;7.53;;;;;;;15.31;55.38;97327.81;4948934;29;20462;-66
2022/03/31 01:26:21;;;;;;;15.57;7.45;;;;;;;15.14;56.09;97334.78;4949363;29;20185;-66
2022/03/31 01:28:47;;;;;;;18.40;8.13;;;;;;;15.05;56.90;97337.53;4949482;29;20267;-66
2022/03/31 01:31:13;;;;;;;16.95;8.10;;;;;;;14.91;57.99;97314.69;4949447;29;20663;-66
2022/03/31 01:33:40;;;;;;;17.27;6.90;;;;;;;14.81;57.07;97324.44;4949480;29;20188;-66
2022/03/31 01:36:07;;;;;;;16.83;6.75;;;;;;;14.74;56.84;97313.00;4949305;29;20185;-66
2022/03/31 01:38:33;;;;;;;20.75;7.55;;;;;;;14.38;56.53;97285.50;4940109;29;20193;-66
2022/03/31 01:40:59;;;;;;;13.32;5.63;;;;;;;14.38;56.33;97308.94;4939191;29;20189;-66
2022/03/31 01:43:26;;;;;;;17.65;6.50;;;;;;;14.52;56.30;97334.41;4943865;29;20181;-66
2022/03/31 01:45:53;;;;;;;18.40;8.25;;;;;;;14.51;57.41;97337.94;4949490;29;20247;-64
2022/03/31 01:48:19;;;;;;;22.10;8.82;;;;;;;14.59;58.35;97314.56;4949513;29;20573;-64
2022/03/31 01:50:45;;;;;;;19.52;8.57;;;;;;;14.64;58.60;97301.91;4949141;29;20196;-64
2022/03/31 01:53:10;;;;;;;15.63;7.63;;;;;;;14.65;58.43;97301.72;4948704;29;20503;-66
2022/03/31 01:55:36;;;;;;;18.58;7.68;;;;;;;14.63;58.58;97295.06;4948973;29;20189;-66
2022/03/31 01:58:03;;;;;;;17.10;7.60;;;;;;;14.49;58.39;97290.44;4946986;28;20239;-65
2022/03/31 02:00:29;;;;;;;16.70;7.22;;;;;;;14.22;58.63;97267.22;4937441;29;20313;-65
2022/03/31 02:02:55;;;;;;;15.32;6.95;;;;;;;14.12;58.97;97276.91;4939372;28;20211;-64
2022/03/31 02:05:21;;;;;;;16.10;6.53;;;;;;;14.18;58.79;97258.06;4946500;29;20725;-65
2022/03/31 02:07:46;;;;;;;15.90;6.97;;;;;;;14.05;58.98;97268.88;4922581;29;20208;-65
2022/03/31 02:10:13;;;;;;;18.17;6.93;;;;;;;13.81;59.47;97267.91;4948818;29;20188;-65
2022/03/31 02:12:40;;;;;;;17.02;7.07;;;;;;;13.77;59.89;97269.22;4948634;29;20273;-64
2022/03/31 02:15:06;;;;;;;16.05;7.97;;;;;;;13.62;60.71;97257.72;4948779;29;20216;-65
2022/03/31 02:17:32;;;;;;;15.15;7.78;;;;;;;13.46;61.01;97260.19;4948744;29;20726;-65
2022/03/31 02:19:58;;;;;;;20.63;8.13;;;;;;;13.56;60.56;97255.72;4942379;29;20216;-65
2022/03/31 02:22:23;;;;;;;12.65;6.72;;;;;;;13.62;60.44;97270.72;4938217;29;20426;-66
2022/03/31 02:24:49;;;;;;;16.33;6.45;;;;;;;13.78;59.67;97265.63;4940265;29;20185;-65
2022/03/31 02:27:14;;;;;;;22.30;6.95;;;;;;;14.02;59.14;97274.41;4948663;29;20280;-65
2022/03/31 02:29:40;;;;;;;15.23;7.00;;;;;;;14.11;58.64;97275.28;4936048;29;20196;-64
2022/03/31 02:32:07;;;;;;;21.98;7.15;;;;;;;14.08;58.34;97284.19;4948491;29;20184;-65
2022/03/31 02:34:33;;;;;;;23.20;6.30;;;;;;;14.13;57.79;97276.75;4948540;29;20181;-65
2022/03/31 02:36:59;;;;;;;12.13;4.93;;;;;;;14.16;58.00;97280.81;4948520;29;20259;-65
2022/03/31 02:39:24;;;;;;;19.17;6.03;;;;;;;13.95;58.31;97288.97;4948557;29;20236;-66
2022/03/31 02:41:50;;;;;;;22.35;6.43;;;;;;;13.96;58.51;97289.81;4938774;29;20189;-65
2022/03/31 02:44:16;;;;;;;18.17;6.13;;;;;;;14.00;58.66;97275.53;4938665;29;20685;-66
2022/03/31 02:46:42;;;;;;;14.23;6.15;;;;;;;14.03;58.36;97270.00;4943223;29;20212;-65
2022/03/31 02:49:08;;;;;;;18.08;7.32;;;;;;;14.03;58.65;97281.25;4931088;29;20197;-65
2022/03/31 02:51:34;;;;;;;15.80;5.85;;;;;;;13.92;58.97;97288.47;4948379;29;20196;-65
2022/03/31 02:56:45;;;;;;;17.80;5.65;;;;;;;13.86;58.57;97287.31;4948732;29;20903;-65
2022/03/31 02:59:10;;;;;;;13.77;5.53;;;;;;;13.88;58.27;97281.97;4948338;29;20630;-65
2022/03/31 03:01:36;;;;;;;19.58;6.43;;;;;;;13.90;58.51;97285.22;4942610;29;20587;-65
2022/03/31 03:04:02;;;;;;;15.50;6.53;;;;;;;13.94;58.65;97286.56;4935797;28;20272;-65
2022/03/31 03:06:27;;;;;;;15.43;7.35;;;;;;;14.02;58.83;97273.59;4938702;29;20173;-65
2022/03/31 03:08:54;;;;;;;22.80;7.75;;;;;;;13.97;59.47;97281.84;4947707;28;20753;-65
2022/03/31 03:11:20;;;;;;;19.15;8.88;;;;;;;14.00;60.46;97294.53;4951757;29;20188;-65
2022/03/31 03:13:46;;;;;;;18.48;8.07;;;;;;;13.77;63.25;97282.22;4951990;29;20189;-64
2022/03/31 03:16:12;;;;;;;23.40;8.40;;;;;;;13.84;63.69;97278.84;4952071;29;20188;-65
2022/03/31 03:18:38;;;;;;;19.95;7.72;;;;;;;13.71;64.45;97281.00;4952114;29;20272;-66
2022/03/31 03:21:07;;;;;;;14.30;7.97;;;;;;;13.56;65.71;97269.53;4952010;29;20201;-65
2022/03/31 03:23:33;;;;;;;16.98;7.75;;;;;;;13.62;65.39;97261.16;4943143;29;20655;-65
2022/03/31 03:26:00;;;;;;;20.95;8.23;;;;;;;13.00;67.99;97237.09;4941787;29;20193;-66
2022/03/31 03:28:27;;;;;;;18.48;8.30;;;;;;;13.19;67.08;97258.50;4945308;29;20256;-65
2022/03/31 03:30:52;;;;;;;20.38;9.05;;;;;;;13.26;67.17;97284.72;4951680;29;20275;-66
2022/03/31 03:33:17;;;;;;;17.83;8.00;;;;;;;13.40;66.64;97285.00;4951540;29;20259;-64
2022/03/31 03:35:43;;;;;;;16.60;7.43;;;;;;;13.40;65.91;97281.56;4951310;29;20196;-66
2022/03/31 03:38:08;;;;;;;17.65;8.70;;;;;;;13.16;67.60;97265.78;4951288;29;20217;-66
2022/03/31 03:40:34;;;;;;;18.35;8.77;;;;;;;13.09;68.04;97264.75;4951425;29;20192;-64
2022/03/31 03:42:59;;;;;;;27.75;9.05;;;;;;;13.10;67.77;97248.19;4951096;29;20214;-66
2022/03/31 03:45:25;;;;;;;27.70;8.70;;;;;;;13.12;67.20;97241.09;4939827;29;20247;-66
2022/03/31 03:47:51;;;;;;;19.15;7.85;;;;;;;13.06;67.95;97239.88;4941678;29;20201;-65
2022/03/31 03:50:17;;;;;;;20.63;8.88;;;;;;;13.16;67.54;97252.78;4947964;29;20690;-65
2022/03/31 03:52:43;;;;;;;20.40;7.93;;;;;;;13.28;67.16;97261.97;4945009;29;20197;-64
2022/03/31 03:55:10;;;;;;;16.98;8.50;;;;;;;13.35;66.53;97265.66;4951195;29;20200;-66
2022/03/31 03:57:36;;;;;;;14.73;8.13;;;;;;;13.45;66.25;97279.34;4951475;29;20343;-65
2022/03/31 04:00:03;;;;;;;13.07;6.95;;;;;;;13.54;65.85;97288.84;4951352;29;20655;-64
2022/03/31 04:02:28;;;;;;;16.48;7.43;;;;;;;13.50;65.32;97283.16;4950716;28;20272;-65
2022/03/31 04:04:54;;;;;;;13.13;7.35;;;;;;;13.43;65.84;97276.09;4946362;29;20291;-65
2022/03/31 04:07:19;;;;;;;21.70;7.78;;;;;;;13.10;67.67;97279.34;4940030;29;20207;-65
2022/03/31 04:09:44;;;;;;;16.40;7.88;;;;;;;13.17;67.36;97270.00;4941904;29;20660;-65
2022/03/31 04:12:10;;;;;;;19.52;7.43;;;;;;;13.28;66.61;97270.59;4950205;29;20188;-65
2022/03/31 04:14:35;;;;;;;18.35;7.55;;;;;;;13.27;66.24;97266.38;4950684;29;20663;-65
2022/03/31 04:17:02;;;;;;;17.38;6.95;;;;;;;13.29;65.94;97268.84;4950897;29;20238;-65
2022/03/31 04:19:27;;;;;;;18.52;7.28;;;;;;;13.07;67.11;97264.09;4951085;29;20821;-65
2022/03/31 04:21:53;;;;;;;13.90;6.40;;;;;;;13.10;66.99;97258.59;4950565;29;20629;-65
2022/03/31 04:24:18;;;;;;;16.73;6.88;;;;;;;12.88;67.98;97246.00;4950739;29;20276;-65
2022/03/31 04:26:44;;;;;;;19.77;7.07;;;;;;;12.79;68.65;97239.94;4941880;29;20710;-65
2022/03/31 04:29:10;;;;;;;18.55;5.40;;;;;;;12.68;68.71;97236.72;4940513;29;21242;-65
2022/03/31 04:31:43;;;;;;;13.65;5.80;;;;;;;12.76;68.35;97244.56;4944878;29;20212;-65
2022/03/31 04:34:10;;;;;;;18.20;6.53;;;;;;;12.81;68.80;97238.00;4950495;29;20769;-65
2022/03/31 04:36:36;;;;;;;18.58;6.65;;;;;;;13.00;68.10;97250.06;4950771;29;20589;-65
2022/03/31 04:39:02;;;;;;;19.77;7.93;;;;;;;13.13;67.31;97246.13;4950457;29;20195;-65
2022/03/31 04:41:28;;;;;;;23.40;7.70;;;;;;;13.19;67.26;97236.94;4950644;29;20189;-65
2022/03/31 04:43:53;;;;;;;25.67;8.77;;;;;;;13.32;66.83;97229.56;4950174;29;20191;-65
2022/03/31 04:46:19;;;;;;;23.40;8.85;;;;;;;13.37;66.65;97238.53;4949225;29;20192;-65
2022/03/31 04:48:45;;;;;;;16.92;7.90;;;;;;;13.48;66.69;97251.28;4938795;29;20221;-65
2022/03/31 04:51:10;;;;;;;15.10;8.30;;;;;;;13.46;66.68;97252.38;4940846;29;20324;-65
2022/03/31 04:53:36;;;;;;;24.52;10.88;;;;;;;13.46;66.42;97255.81;4947295;29;20287;-65
2022/03/31 04:56:01;;;;;;;24.75;10.07;;;;;;;13.59;65.74;97251.03;4950177;29;20180;-65
2022/03/31 04:58:28;;;;;;;22.20;9.38;;;;;;;13.55;66.51;97269.69;4950098;29;20674;-65
2022/03/31 05:00:53;;;;;;;19.20;9.25;;;;;;;13.66;65.88;97275.44;4949994;29;20199;-65
2022/03/31 05:03:18;;;;;;;21.98;8.93;;;;;;;13.59;66.15;97265.84;4950032;28;20228;-65
2022/03/31 05:05:44;;;;;;;73.82;37.38;;;;;;;13.74;65.16;97269.50;4949402;29;20177;-65
2022/03/31 05:08:10;;;;;;;112.20;69.53;;;;;;;13.79;64.64;97275.06;4943303;29;20273;-65
2022/03/31 05:10:35;;;;;;;32.50;18.90;;;;;;;13.84;63.97;97278.03;4939126;29;20193;-65
2022/03/31 05:13:01;;;;;;;42.00;24.30;;;;;;;13.80;63.45;97268.88;4941121;29;20212;-65
2022/03/31 05:15:26;;;;;;;29.10;12.15;;;;;;;13.80;63.38;97281.88;4949399;29;20651;-65
2022/03/31 05:17:52;;;;;;;28.73;10.88;;;;;;;13.83;63.83;97282.41;4949681;29;20644;-65
2022/03/31 05:20:17;;;;;;;22.50;11.70;;;;;;;13.87;64.45;97275.94;4949560;29;20189;-65
2022/03/31 05:22:43;;;;;;;33.15;16.38;;;;;;;13.92;64.55;97283.25;4949555;29;20208;-65
2022/03/31 05:25:10;;;;;;;25.83;14.45;;;;;;;13.97;64.84;97292.25;4949695;29;20192;-67
2022/03/31 05:27:47;;;;;;;33.95;17.15;;;;;;;13.94;65.21;97276.16;4949707;29;20209;-65
2022/03/31 05:30:15;;;;;;;35.63;16.90;;;;;;;13.95;65.24;97268.16;4939496;29;20259;-66
2022/03/31 05:32:41;;;;;;;37.83;16.88;;;;;;;14.01;64.99;97266.75;4938268;28;20632;-67
2022/03/31 05:35:08;;;;;;;30.48;15.57;;;;;;;14.08;65.02;97281.59;4944616;29;20193;-66
2022/03/31 05:37:34;;;;;;;38.97;14.90;;;;;;;14.03;65.32;97289.03;4948968;29;20255;-67
2022/03/31 05:40:05;;;;;;;33.33;17.00;;;;;;;14.07;65.38;97294.75;4949302;29;20571;-65
2022/03/31 05:42:35;;;;;;;54.72;32.80;;;;;;;14.13;65.00;97289.75;4949150;29;20264;-67
2022/03/31 05:45:02;;;;;;;36.25;21.05;;;;;;;14.11;65.39;97283.06;4949176;29;20193;-66
2022/03/31 05:47:27;;;;;;;34.20;17.65;;;;;;;14.01;65.68;97282.38;4949122;29;20662;-66
2022/03/31 05:49:53;;;;;;;30.60;14.85;;;;;;;14.10;65.74;97297.03;4945854;29;20833;-64
2022/03/31 05:52:19;;;;;;;27.25;12.40;;;;;;;14.13;65.39;97297.56;4937917;29;20649;-66
2022/03/31 05:54:44;;;;;;;25.25;11.77;;;;;;;14.01;66.17;97287.56;4939829;29;20737;-66
2022/03/31 05:57:10;;;;;;;27.95;10.18;;;;;;;13.98;66.77;97308.66;4947682;29;20185;-65
2022/03/31 05:59:36;;;;;;;27.73;9.98;;;;;;;14.10;66.88;97317.84;4948929;29;20268;-66
2022/03/31 06:02:02;;;;;;;24.08;8.50;;;;;;;14.17;67.02;97334.50;4948919;29;20200;-65
2022/03/31 06:04:27;;;;;;;24.40;9.57;;;;;;;14.16;67.15;97306.81;4948819;28;20725;-65
2022/03/31 06:06:53;;;;;;;31.08;9.52;;;;;;;14.18;67.65;97307.50;4948832;29;20200;-66
2022/03/31 06:09:18;;;;;;;22.58;9.90;;;;;;;14.14;67.50;97306.16;4948979;29;20279;-66
2022/03/31 06:11:44;;;;;;;30.67;11.75;;;;;;;14.02;67.62;97291.78;4941327;29;20239;-66
2022/03/31 06:14:11;;;;;;;31.83;13.30;;;;;;;14.01;68.54;97305.78;4938367;29;20204;-66
2022/03/31 06:16:37;;;;;;;27.50;12.52;;;;;;;14.07;68.40;97312.97;4941514;29;20201;-65
2022/03/31 06:19:03;;;;;;;35.28;15.48;;;;;;;14.15;67.92;97313.00;4948767;29;20212;-65
2022/03/31 06:21:29;;;;;;;28.90;14.55;;;;;;;14.27;67.36;97328.25;4948720;29;20782;-65
2022/03/31 06:23:54;;;;;;;26.67;11.48;;;;;;;14.02;68.45;97336.84;4948751;29;20272;-64
2022/03/31 06:26:20;;;;;;;21.70;8.27;;;;;;;14.03;68.33;97327.22;4948796;29;20275;-65
2022/03/31 06:28:45;;;;;;;20.48;8.40;;;;;;;14.04;68.36;97336.66;4948066;29;20209;-65
2022/03/31 06:31:11;;;;;;;21.58;8.63;;;;;;;14.00;68.68;97327.53;4949037;29;20220;-66
2022/03/31 06:33:37;;;;;;;23.80;9.20;;;;;;;13.91;69.46;97325.84;4937824;29;20223;-65
2022/03/31 06:36:03;;;;;;;18.17;10.35;;;;;;;13.46;71.76;97323.38;4938887;29;20195;-65
2022/03/31 06:38:29;;;;;;;26.73;9.77;;;;;;;13.35;72.79;97336.59;4944226;29;20276;-65
2022/03/31 06:41:06;;;;;;;31.30;9.85;;;;;;;13.42;72.35;97321.22;4948561;29;20260;-65
2022/03/31 06:43:33;;;;;;;23.52;9.40;;;;;;;13.25;73.44;97303.88;4948828;28;20189;-64
2022/03/31 06:45:58;;;;;;;21.70;9.70;;;;;;;13.44;72.64;97288.94;4952509;29;20193;-65
2022/03/31 06:48:26;;;;;;;24.38;10.77;;;;;;;13.43;72.88;97271.72;4952126;29;20212;-66
2022/03/31 06:50:52;;;;;;;23.08;11.23;;;;;;;13.49;72.60;97281.53;4952469;29;20216;-65
2022/03/31 06:53:18;;;;;;;26.73;10.73;;;;;;;13.67;71.46;97297.91;4947865;29;20188;-65
2022/03/31 06:55:43;;;;;;;22.90;9.25;;;;;;;13.83;70.92;97289.41;4941570;29;20586;-65
2022/03/31 06:58:09;;;;;;;21.08;10.07;;;;;;;13.97;70.40;97296.63;4943089;29;20248;-65
2022/03/31 07:00:34;;;;;;;31.13;11.00;;;;;;;14.06;69.64;97300.94;4951627;29;20181;-65
2022/03/31 07:03:00;;;;;;;24.67;11.32;;;;;;;14.25;69.19;97316.34;4951992;28;20294;-65
2022/03/31 07:05:26;;;;;;;27.00;12.35;;;;;;;14.35;68.40;97314.47;4951943;29;20267;-65
2022/03/31 07:07:52;;;;;;;23.50;10.68;;;;;;;14.36;68.47;97323.91;4952063;29;20213;-65
2022/03/31 07:10:18;;;;;;;30.48;10.45;;;;;;;14.54;68.01;97327.25;4952338;29;20246;-65
2022/03/31 07:12:44;;;;;;;27.80;11.60;;;;;;;14.56;68.20;97340.91;4951946;29;21106;-65
2022/03/31 07:15:10;;;;;;;29.02;10.70;;;;;;;14.59;68.04;97338.00;4942807;29;20475;-65
2022/03/31 07:17:35;;;;;;;27.45;10.82;;;;;;;14.74;67.96;97341.63;4941630;29;20189;-65
2022/03/31 07:20:01;;;;;;;37.08;16.85;;;;;;;14.85;67.83;97351.78;4945953;29;20325;-65
2022/03/31 07:22:26;;;;;;;20.98;9.55;;;;;;;14.90;67.83;97346.91;4952032;29;20637;-65
2022/03/31 07:24:52;;;;;;;25.58;9.45;;;;;;;14.95;67.86;97342.03;4951512;29;20196;-65
2022/03/31 07:27:17;;;;;;;24.80;11.48;;;;;;;15.05;67.65;97343.53;4951679;29;20213;-67
2022/03/31 07:29:43;;;;;;;22.85;9.32;;;;;;;15.16;67.20;97345.06;4951650;29;20199;-65
2022/03/31 07:32:08;;;;;;;21.85;9.30;;;;;;;15.14;67.23;97346.97;4951885;29;20657;-65
2022/03/31 07:34:35;;;;;;;26.58;10.27;;;;;;;15.02;68.12;97338.66;4950957;29;20738;-67
2022/03/31 07:37:01;;;;;;;30.42;10.00;;;;;;;14.94;68.73;97345.63;4938800;29;20189;-65
2022/03/31 07:39:27;;;;;;;27.60;10.02;;;;;;;15.08;68.17;97348.44;4941985;29;20250;-67
2022/03/31 07:41:52;;;;;;;27.98;9.45;;;;;;;15.32;67.20;97355.50;4948461;29;20267;-65
2022/03/31 07:44:17;;;;;;;19.02;8.32;;;;;;;15.59;65.13;97357.84;4951236;29;20184;-65
2022/03/31 07:46:43;;;;;;;23.60;10.45;;;;;;;15.80;64.09;97353.00;4951247;29;20663;-65
2022/03/31 07:49:09;;;;;;;25.77;10.23;;;;;;;15.81;63.51;97349.41;4951360;29;20623;-65
2022/03/31 07:51:34;;;;;;;21.00;9.07;;;;;;;15.46;63.81;97347.91;4951582;29;20676;-65
2022/03/31 07:54:01;;;;;;;23.02;9.27;;;;;;;15.51;64.17;97323.97;4951288;29;20685;-66
2022/03/31 07:56:26;;;;;;;15.60;7.72;;;;;;;15.75;62.80;97321.38;4945614;28;20757;-65
2022/03/31 07:58:52;;;;;;;19.15;6.78;;;;;;;15.89;60.92;97325.91;4940439;29;20181;-65
2022/03/31 08:01:17;;;;;;;16.48;6.80;;;;;;;15.95;60.76;97317.44;4942136;29;20255;-65
2022/03/31 08:03:42;;;;;;;18.55;7.78;;;;;;;16.11;60.35;97313.03;4950653;28;20228;-65
2022/03/31 08:06:08;;;;;;;23.08;7.28;;;;;;;16.30;58.22;97317.88;4950807;29;20189;-65
2022/03/31 08:08:34;;;;;;;23.88;8.43;;;;;;;16.48;57.12;97317.69;4950963;29;20212;-65
2022/03/31 08:11:00;;;;;;;29.52;12.38;;;;;;;16.58;56.06;97308.69;4950911;29;20224;-65
2022/03/31 08:13:27;;;;;;;17.77;6.90;;;;;;;16.75;55.31;97302.41;4950963;29;20275;-65
2022/03/31 08:15:54;;;;;;;22.33;8.25;;;;;;;16.84;54.96;97316.25;4951193;29;20197;-66
2022/03/31 08:18:25;;;;;;;23.95;9.27;;;;;;;16.94;56.21;97311.63;4941837;29;20227;-66
2022/03/31 08:20:51;;;;;;;25.20;9.90;;;;;;;17.07;56.49;97319.72;4940408;29;20193;-66
2022/03/31 08:23:17;;;;;;;21.95;9.50;;;;;;;17.13;55.81;97314.63;4945443;29;20192;-66
2022/03/31 08:25:43;;;;;;;25.30;8.77;;;;;;;17.28;54.56;97326.00;4950696;29;20217;-66
2022/03/31 08:28:08;;;;;;;18.02;8.02;;;;;;;17.30;53.91;97313.53;4950372;29;20287;-66
2022/03/31 08:30:33;;;;;;;29.33;8.13;;;;;;;17.32;54.20;97297.69;4950634;29;20188;-64
2022/03/31 08:32:59;;;;;;;27.90;8.57;;;;;;;17.25;53.41;97289.72;4950542;29;20243;-65
2022/03/31 08:35:28;;;;;;;23.83;8.85;;;;;;;17.28;53.82;97281.53;4950508;29;20212;-64
2022/03/31 08:37:54;;;;;;;24.10;8.70;;;;;;;17.42;53.46;97288.66;4949105;29;20581;-64
2022/03/31 08:40:19;;;;;;;22.67;8.00;;;;;;;17.54;53.02;97276.78;4938909;29;20196;-65
2022/03/31 08:42:45;;;;;;;20.73;7.43;;;;;;;17.65;52.03;97286.00;4940852;29;20215;-65
2022/03/31 08:45:14;;;;;;;28.52;8.50;;;;;;;17.67;51.69;97281.44;4947787;29;20196;-66
2022/03/31 08:47:43;;;;;;;30.50;7.47;;;;;;;17.75;51.36;97291.81;4950414;29;20216;-66
2022/03/31 08:50:09;;;;;;;26.45;8.90;;;;;;;17.88;51.72;97302.50;4950358;29;20208;-66
2022/03/31 08:52:35;;;;;;;25.52;9.20;;;;;;;17.85;51.64;97292.41;4950256;29;20231;-64
2022/03/31 08:55:01;;;;;;;28.08;9.43;;;;;;;17.97;52.03;97294.44;4950468;29;20652;-66
2022/03/31 08:57:38;;;;;;;21.90;10.32;;;;;;;18.07;52.88;97287.09;4950106;29;20234;-66
2022/03/31 09:00:04;;;;;;;24.15;9.85;;;;;;;18.17;54.56;97298.13;4942186;29;20791;-64
2022/03/31 09:02:30;;;;;;;25.75;10.07;;;;;;;18.13;56.21;97268.06;4939711;28;20188;-65
2022/03/31 09:05:00;;;;;;;28.73;8.88;;;;;;;18.10;56.98;97280.69;4942648;29;20283;-66
2022/03/31 09:07:26;;;;;;;20.75;8.05;;;;;;;18.01;57.29;97292.25;4948972;28;20690;-66
2022/03/31 09:09:51;;;;;;;25.00;9.23;;;;;;;18.07;57.02;97281.88;4949801;29;20202;-66
2022/03/31 09:12:17;;;;;;;27.42;9.07;;;;;;;18.07;57.21;97287.09;4949694;29;20674;-66
2022/03/31 09:14:43;;;;;;;17.40;8.30;;;;;;;18.17;57.00;97269.34;4950021;29;20188;-64
2022/03/31 09:17:13;;;;;;;24.48;9.30;;;;;;;18.28;56.42;97261.03;4919441;29;20658;-66
2022/03/31 09:19:39;;;;;;;26.73;8.93;;;;;;;18.09;56.88;97269.44;4949498;29;20212;-66
2022/03/31 09:22:06;;;;;;;21.05;8.80;;;;;;;18.00;57.45;97283.56;4938069;29;20203;-65
2022/03/31 09:24:32;;;;;;;21.38;8.35;;;;;;;18.08;56.97;97288.72;4939875;29;20271;-65
2022/03/31 09:26:59;;;;;;;34.03;8.95;;;;;;;18.25;56.40;97290.19;4945621;29;20698;-66
2022/03/31 09:29:29;;;;;;;22.33;9.63;;;;;;;18.32;56.18;97288.53;4949416;29;20304;-66
2022/03/31 09:32:07;;;;;;;22.73;8.93;;;;;;;18.24;56.58;97303.50;4949343;29;20188;-65
2022/03/31 09:34:44;;;;;;;22.80;8.93;;;;;;;18.19;55.94;97295.34;4949635;29;20270;-66
2022/03/31 09:37:11;;;;;;;18.42;9.10;;;;;;;18.35;56.09;97272.44;4949270;29;20576;-66
2022/03/31 09:39:37;;;;;;;23.88;9.23;;;;;;;18.46;55.99;97260.69;4949185;29;20216;-64
2022/03/31 09:42:10;;;;;;;25.85;10.60;;;;;;;18.51;55.42;97287.16;4942715;29;20195;-66
2022/03/31 09:44:36;;;;;;;23.35;9.10;;;;;;;18.35;55.72;97284.72;4939010;29;21040;-66
2022/03/31 09:47:02;;;;;;;23.73;8.82;;;;;;;18.28;55.92;97279.38;4941833;29;20210;-66
2022/03/31 09:49:28;;;;;;;25.58;8.45;;;;;;;17.93;57.03;97268.75;4949376;29;20196;-66
2022/03/31 09:51:59;;;;;;;21.48;8.52;;;;;;;18.11;56.54;97272.69;4949040;29;20524;-66
2022/03/31 09:54:27;;;;;;;20.80;8.75;;;;;;;18.11;56.59;97267.44;4949006;29;20243;-66
2022/03/31 09:56:56;;;;;;;25.08;9.30;;;;;;;17.96;56.80;97253.50;4949345;29;20218;-65
2022/03/31 09:59:29;;;;;;;21.50;8.30;;;;;;;18.09;56.52;97260.75;4949251;29;20609;-64
2022/03/31 10:01:54;;;;;;;23.30;8.32;;;;;;;18.05;56.03;97260.31;4948525;29;20247;-64
2022/03/31 10:04:20;;;;;;;24.75;8.05;;;;;;;18.27;55.61;97251.56;4937375;28;20653;-65
2022/03/31 10:06:45;;;;;;;30.00;8.15;;;;;;;18.46;54.31;97244.97;4939047;29;20196;-66
2022/03/31 10:09:12;;;;;;;21.98;7.15;;;;;;;18.59;53.96;97234.69;4945843;29;20192;-66
2022/03/31 10:11:42;;;;;;;28.13;8.15;;;;;;;18.86;53.70;97232.19;4949118;29;20279;-65
2022/03/31 10:14:40;;;;;;;27.52;9.07;;;;;;;18.95;53.61;97246.78;4948446;29;20708;-66
2022/03/31 10:17:11;;;;;;;27.92;8.98;;;;;;;18.76;54.69;97259.69;4948891;29;20176;-66
2022/03/31 10:19:46;;;;;;;24.42;8.18;;;;;;;18.99;54.59;97239.34;4948604;28;20697;-66
2022/03/31 10:24:41;;;;;;;20.45;8.50;;;;;;;19.13;54.32;97243.75;4948768;29;20211;-66
2022/03/31 10:25:06;;;;;;;21.95;8.63;;;;;;;19.29;53.39;97227.81;4938223;29;20196;-66
2022/03/31 10:27:34;;;;;;;25.30;10.57;;;;;;;19.37;53.09;97222.44;4938647;29;20283;-66
2022/03/31 10:30:10;;;;;;;24.73;9.32;;;;;;;19.43;52.88;97203.31;4944191;29;20224;-66
2022/03/31 10:32:36;;;;;;;23.45;9.23;;;;;;;19.44;53.05;97216.25;4948436;29;20192;-66
2022/03/31 10:35:01;;;;;;;34.72;10.52;;;;;;;19.53;52.67;97230.06;4922152;29;20220;-66
2022/03/31 10:37:36;;;;;;;21.35;9.57;;;;;;;19.46;52.49;97229.19;4948591;29;20259;-66
2022/03/31 10:40:08;;;;;;;20.42;9.45;;;;;;;19.49;52.30;97244.53;4948523;29;20188;-66
2022/03/31 10:42:34;;;;;;;26.83;8.73;;;;;;;19.54;52.62;97227.25;4948486;29;20180;-65
2022/03/31 10:45:12;;;;;;;25.40;9.63;;;;;;;19.54;52.33;97227.25;4943257;29;20195;-64
2022/03/31 10:47:40;;;;;;;31.52;9.27;;;;;;;19.52;52.51;97231.84;4937782;29;20876;-65
2022/03/31 10:50:07;;;;;;;24.83;9.70;;;;;;;19.05;54.20;97236.03;4940727;29;20914;-66
2022/03/31 10:52:33;;;;;;;31.42;10.43;;;;;;;19.02;54.38;97225.88;4948523;29;20189;-66
2022/03/31 10:55:10;;;;;;;25.95;9.82;;;;;;;18.98;54.95;97217.59;4948635;29;20282;-66
2022/03/31 10:57:41;;;;;;;28.70;8.80;;;;;;;18.98;54.88;97201.03;4948619;29;20176;-68
2022/03/31 11:00:08;;;;;;;26.95;8.50;;;;;;;19.10;55.70;97210.03;4948626;29;20286;-66
2022/03/31 11:02:40;;;;;;;28.05;8.00;;;;;;;19.29;55.33;97222.56;4948236;28;20581;-65
2022/03/31 11:05:06;;;;;;;22.98;8.05;;;;;;;19.37;55.09;97214.56;4947458;29;20188;-65
2022/03/31 11:07:31;;;;;;;25.98;7.97;;;;;;;19.26;55.09;97212.44;4936514;29;20762;-65
2022/03/31 11:10:09;;;;;;;27.40;8.80;;;;;;;19.26;54.51;97207.19;4938751;29;20283;-65
2022/03/31 11:12:36;;;;;;;14.40;7.68;;;;;;;19.19;54.52;97214.16;4945757;29;20184;-67
2022/03/31 11:15:07;;;;;;;26.50;8.20;;;;;;;19.30;54.23;97234.69;4948019;29;20726;-66
2022/03/31 11:17:33;;;;;;;28.15;10.05;;;;;;;19.37;54.62;97197.03;4948077;29;20181;-66
2022/03/31 11:20:03;;;;;;;19.67;7.22;;;;;;;19.47;54.59;97200.13;4948504;29;20224;-66
2022/03/31 11:22:30;;;;;;;21.73;8.27;;;;;;;19.24;54.01;97199.50;4948453;29;20251;-67
2022/03/31 11:25:10;;;;;;;26.25;7.65;;;;;;;19.30;54.38;97205.84;4948124;29;20833;-67